Time;durP1;ratioP1;P1;durP2;ratioP2;P2;SDS_P1;SDS_P2;PMS_P1;PMS_P2;Temp;Humidity;BMP_temperature;BMP_pressure;BME280_temperature;BME280_humidity;BME280_pressure;Samples;Min_cycle;Max_cycle;Signal;HPM_P1;HPM_P2
2020/12/05 00:01:51;;;;;;;0.15;0.15;;;3.00;99.90;;;;;;5056437;28;20040;-81
2020/12/05 00:04:17;;;;;;;0.80;0.80;;;3.00;99.90;;;;;;5058892;28;20020;-81
2020/12/05 00:06:43;;;;;;;0.20;0.20;;;3.10;99.90;;;;;;5053740;28;20517;-81
2020/12/05 00:09:09;;;;;;;2.45;0.63;;;3.20;99.90;;;;;;5058674;28;20153;-81
2020/12/05 00:11:35;;;;;;;0.00;0.00;;;3.30;99.90;;;;;;5061083;28;20037;-81
2020/12/05 00:14:01;;;;;;;0.40;0.40;;;3.40;99.90;;;;;;5058045;28;20031;-81
2020/12/05 00:16:27;;;;;;;0.20;0.20;;;3.50;99.90;;;;;;5068229;28;20158;-81
2020/12/05 00:18:54;;;;;;;0.88;0.55;;;3.50;99.90;;;;;;5061052;28;20107;-81
2020/12/05 00:21:23;;;;;;;0.10;0.10;;;3.50;99.90;;;;;;5068216;28;20601;-81
2020/12/05 00:23:50;;;;;;;0.20;0.20;;;3.60;99.90;;;;;;5066584;28;21069;-81
2020/12/05 00:26:18;;;;;;;0.10;0.10;;;3.70;99.90;;;;;;5067560;28;20078;-81
2020/12/05 00:28:44;;;;;;;0.20;0.20;;;3.60;99.90;;;;;;5069974;28;20040;-81
2020/12/05 00:31:12;;;;;;;1.27;1.17;;;3.60;99.90;;;;;;5065545;28;20402;-81
2020/12/05 00:33:39;;;;;;;0.40;0.25;;;3.60;99.90;;;;;;5066396;28;20098;-81
2020/12/05 00:36:05;;;;;;;0.43;0.30;;;3.50;99.90;;;;;;5068654;28;20548;-81
2020/12/05 00:38:31;;;;;;;0.30;0.30;;;3.50;99.90;;;;;;5064952;28;20032;-81
2020/12/05 00:40:56;;;;;;;0.25;0.25;;;3.50;99.90;;;;;;5067755;28;20025;-80
2020/12/05 00:43:22;;;;;;;0.30;0.30;;;3.40;99.90;;;;;;5067981;28;20035;-81
2020/12/05 00:45:49;;;;;;;0.10;0.10;;;3.40;99.90;;;;;;5072054;28;20107;-81
2020/12/05 00:48:15;;;;;;;0.25;0.25;;;3.60;99.90;;;;;;5051529;28;20024;-81
2020/12/05 00:50:41;;;;;;;0.10;0.10;;;3.60;99.90;;;;;;5066233;28;20028;-81
2020/12/05 00:53:07;;;;;;;1.17;1.17;;;3.60;99.90;;;;;;5071686;28;20038;-80
2020/12/05 00:55:32;;;;;;;0.35;0.35;;;3.70;99.90;;;;;;5069829;28;20052;-80
2020/12/05 00:57:58;;;;;;;0.10;0.10;;;3.70;99.90;;;;;;5069432;28;20029;-81
2020/12/05 01:00:24;;;;;;;0.20;0.20;;;3.70;99.90;;;;;;5071717;28;20083;-81
2020/12/05 01:02:50;;;;;;;0.10;0.10;;;3.70;99.90;;;;;;5070124;28;20120;-81
2020/12/05 01:05:16;;;;;;;0.52;0.52;;;3.60;99.90;;;;;;5065019;28;20040;-80
2020/12/05 01:07:42;;;;;;;2.45;0.95;;;3.60;99.90;;;;;;5068515;28;20021;-81
2020/12/05 01:10:08;;;;;;;0.30;0.30;;;3.70;99.90;;;;;;5070549;28;20073;-81
2020/12/05 01:12:34;;;;;;;0.43;0.43;;;3.70;99.90;;;;;;5071638;28;20379;-81
2020/12/05 01:15:04;;;;;;;0.27;0.27;;;3.80;99.90;;;;;;5061040;28;20063;-81
2020/12/05 01:17:35;;;;;;;0.10;0.10;;;3.70;99.90;;;;;;5071346;28;20338;-81
2020/12/05 01:20:04;;;;;;;0.20;0.20;;;3.70;99.90;;;;;;5071639;28;20021;-81
2020/12/05 01:22:30;;;;;;;0.30;0.30;;;3.70;99.90;;;;;;5062761;28;20603;-81
2020/12/05 01:24:55;;;;;;;0.00;0.00;;;3.80;99.90;;;;;;5071611;28;20031;-81
2020/12/05 01:27:21;;;;;;;0.10;0.10;;;3.80;99.90;;;;;;5066477;28;20394;-81
2020/12/05 01:29:47;;;;;;;0.10;0.10;;;3.80;99.90;;;;;;5064389;28;20040;-81
2020/12/05 01:32:14;;;;;;;1.65;0.70;;;3.70;99.90;;;;;;5057455;28;20040;-81
2020/12/05 01:34:40;;;;;;;0.20;0.20;;;3.70;99.90;;;;;;5071421;28;20048;-81
2020/12/05 01:37:06;;;;;;;0.10;0.10;;;3.70;99.90;;;;;;5059087;28;20528;-81
2020/12/05 01:39:32;;;;;;;0.10;0.10;;;3.70;99.90;;;;;;5058837;28;20751;-81
2020/12/05 01:41:58;;;;;;;0.30;0.30;;;3.80;99.90;;;;;;5058900;28;20094;-81
2020/12/05 01:44:24;;;;;;;0.10;0.10;;;3.70;99.90;;;;;;5063276;28;20032;-81
2020/12/05 01:46:52;;;;;;;0.10;0.10;;;3.80;99.90;;;;;;5060179;28;20528;-81
2020/12/05 01:49:20;;;;;;;0.10;0.10;;;3.80;99.90;;;;;;5057913;28;20031;-81
2020/12/05 01:51:46;;;;;;;0.10;0.10;;;3.80;99.90;;;;;;5055618;28;20025;-81
2020/12/05 01:54:13;;;;;;;0.10;0.10;;;3.80;99.90;;;;;;5050907;28;20494;-82
2020/12/05 01:56:41;;;;;;;0.10;0.10;;;3.80;99.90;;;;;;5056595;28;20075;-82
2020/12/05 01:59:07;;;;;;;0.10;0.10;;;3.90;99.90;;;;;;5055344;28;20032;-82
2020/12/05 02:01:33;;;;;;;0.30;0.30;;;3.80;99.90;;;;;;5053735;28;20033;-81
2020/12/05 02:04:01;;;;;;;0.10;0.10;;;3.80;99.90;;;;;;5050903;28;20183;-81
2020/12/05 02:06:40;;;;;;;0.30;0.30;;;3.70;99.90;;;;;;5067741;28;20028;-81
2020/12/05 02:09:14;;;;;;;0.10;0.10;;;3.80;99.90;;;;;;5058832;28;20494;-80
2020/12/05 02:11:44;;;;;;;0.90;0.90;;;3.70;99.90;;;;;;5053884;28;20029;-81
2020/12/05 02:14:13;;;;;;;0.20;0.20;;;3.60;99.90;;;;;;5058288;28;20032;-80
2020/12/05 02:16:42;;;;;;;0.32;0.32;;;3.50;99.90;;;;;;5067993;28;20021;-80
2020/12/05 02:19:11;;;;;;;0.10;0.10;;;3.50;99.90;;;;;;5070408;28;20436;-80
2020/12/05 02:21:40;;;;;;;0.10;0.10;;;3.50;99.90;;;;;;5066555;28;20053;-80
2020/12/05 02:24:06;;;;;;;0.10;0.10;;;3.50;99.90;;;;;;5060183;28;20448;-80
2020/12/05 02:26:32;;;;;;;0.10;0.10;;;3.50;99.90;;;;;;5064251;28;20150;-80
2020/12/05 02:28:58;;;;;;;0.10;0.10;;;3.50;99.90;;;;;;5058338;28;20561;-80
2020/12/05 02:31:25;;;;;;;0.38;0.38;;;3.60;99.90;;;;;;5061700;28;20036;-80
2020/12/05 02:33:51;;;;;;;0.00;0.00;;;3.60;99.90;;;;;;5068368;28;20020;-80
2020/12/05 02:36:17;;;;;;;0.08;0.08;;;3.70;99.90;;;;;;5059919;28;20033;-80
2020/12/05 02:39:00;;;;;;;0.10;0.10;;;3.70;99.90;;;;;;5063193;28;20488;-80
2020/12/05 02:41:27;;;;;;;0.10;0.10;;;3.70;99.90;;;;;;5060442;28;20078;-80
2020/12/05 02:43:53;;;;;;;0.10;0.10;;;3.70;99.90;;;;;;5069554;28;20632;-80
2020/12/05 02:46:20;;;;;;;0.10;0.10;;;3.70;99.90;;;;;;5069477;28;20524;-80
2020/12/05 02:48:46;;;;;;;0.10;0.10;;;3.80;99.90;;;;;;5066102;28;20025;-80
2020/12/05 02:51:12;;;;;;;0.20;0.20;;;3.80;99.90;;;;;;5060177;28;20024;-80
2020/12/05 02:53:38;;;;;;;0.10;0.10;;;3.80;99.90;;;;;;5067519;28;20102;-81
2020/12/05 02:56:04;;;;;;;0.20;0.20;;;3.70;99.90;;;;;;5054993;28;20075;-81
2020/12/05 02:58:30;;;;;;;0.10;0.10;;;3.80;99.90;;;;;;5062726;28;20033;-80
2020/12/05 03:00:56;;;;;;;0.10;0.10;;;3.80;99.90;;;;;;5055943;28;20027;-80
2020/12/05 03:03:21;;;;;;;0.10;0.10;;;3.70;99.90;;;;;;5051259;28;20417;-81
2020/12/05 03:05:47;;;;;;;0.10;0.10;;;3.70;99.90;;;;;;5062984;28;20032;-80
2020/12/05 03:08:13;;;;;;;0.10;0.10;;;3.60;99.90;;;;;;5069300;28;20048;-80
2020/12/05 03:10:38;;;;;;;0.00;0.00;;;3.60;99.90;;;;;;5059946;28;20071;-80
2020/12/05 03:13:04;;;;;;;0.08;0.08;;;3.60;99.90;;;;;;5048590;28;20028;-80
2020/12/05 03:15:30;;;;;;;0.88;0.82;;;3.40;99.90;;;;;;5057442;28;20489;-81
2020/12/05 03:17:56;;;;;;;0.00;0.00;;;3.60;99.90;;;;;;5064370;28;20386;-81
2020/12/05 03:20:21;;;;;;;0.32;0.32;;;3.50;99.90;;;;;;5068335;28;20103;-81
2020/12/05 03:22:47;;;;;;;0.10;0.10;;;3.40;99.90;;;;;;5067232;28;20090;-81
2020/12/05 03:25:13;;;;;;;0.10;0.10;;;3.40;99.90;;;;;;5053036;28;20032;-80
2020/12/05 03:27:39;;;;;;;0.85;0.40;;;3.40;99.90;;;;;;5063506;28;20103;-81
2020/12/05 03:30:05;;;;;;;0.00;0.00;;;3.40;99.90;;;;;;5063256;28;20055;-82
2020/12/05 03:32:31;;;;;;;0.10;0.10;;;3.40;99.90;;;;;;5056935;28;20025;-82
2020/12/05 03:34:58;;;;;;;0.20;0.20;;;3.30;99.90;;;;;;5051341;28;20095;-82
2020/12/05 03:37:25;;;;;;;0.50;0.50;;;3.20;99.90;;;;;;5061268;28;20036;-82
2020/12/05 03:39:51;;;;;;;0.22;0.22;;;3.30;99.90;;;;;;5048852;28;20025;-81
2020/12/05 03:42:18;;;;;;;0.10;0.10;;;3.40;99.90;;;;;;5064924;28;20506;-82
2020/12/05 03:44:43;;;;;;;0.10;0.10;;;3.40;99.90;;;;;;5063638;28;20029;-82
2020/12/05 03:47:09;;;;;;;0.20;0.20;;;3.40;99.90;;;;;;5065807;28;20413;-82
2020/12/05 03:49:36;;;;;;;0.03;0.03;;;3.40;99.90;;;;;;5060394;28;20028;-82
2020/12/05 03:52:03;;;;;;;0.10;0.10;;;3.40;99.90;;;;;;5055038;28;20379;-82
2020/12/05 03:54:29;;;;;;;0.40;0.40;;;3.30;99.90;;;;;;5054182;28;20602;-82
2020/12/05 03:56:55;;;;;;;1.55;0.75;;;3.30;99.90;;;;;;5061681;28;20115;-82
2020/12/05 03:59:20;;;;;;;0.10;0.10;;;3.40;99.90;;;;;;5061055;28;20397;-83
2020/12/05 04:01:47;;;;;;;0.10;0.10;;;3.40;99.90;;;;;;5064682;28;20032;-83
2020/12/05 04:04:13;;;;;;;0.35;0.35;;;3.20;99.90;;;;;;5056306;28;20025;-82
2020/12/05 04:06:39;;;;;;;0.82;0.82;;;3.10;99.90;;;;;;5055900;28;20059;-82
2020/12/05 04:09:04;;;;;;;0.00;0.00;;;3.00;99.90;;;;;;5061663;28;20058;-83
2020/12/05 04:11:30;;;;;;;0.20;0.20;;;2.80;99.90;;;;;;5063051;28;20032;-83
2020/12/05 04:13:56;;;;;;;0.10;0.10;;;2.50;99.90;;;;;;5059014;28;20028;-81
2020/12/05 04:16:22;;;;;;;0.10;0.10;;;2.50;99.90;;;;;;5062651;28;20032;-81
2020/12/05 04:18:48;;;;;;;0.10;0.10;;;2.50;99.90;;;;;;5054324;28;20081;-81
2020/12/05 04:21:13;;;;;;;0.20;0.20;;;2.70;99.90;;;;;;5067775;28;20079;-80
2020/12/05 04:23:40;;;;;;;0.10;0.10;;;2.70;99.90;;;;;;5065447;28;20076;-81
2020/12/05 04:26:06;;;;;;;0.10;0.10;;;2.80;99.90;;;;;;5058810;28;20060;-81
2020/12/05 04:28:31;;;;;;;0.10;0.10;;;3.00;99.90;;;;;;5057055;28;20025;-81
2020/12/05 04:30:57;;;;;;;2.38;0.38;;;3.10;99.90;;;;;;5066340;28;20032;-82
2020/12/05 04:33:23;;;;;;;0.30;0.30;;;3.10;99.90;;;;;;5061906;28;20825;-82
2020/12/05 04:35:49;;;;;;;0.10;0.10;;;3.20;99.90;;;;;;5061089;28;20063;-81
2020/12/05 04:38:14;;;;;;;0.10;0.10;;;3.20;99.90;;;;;;5053328;28;20740;-82
2020/12/05 04:40:40;;;;;;;0.10;0.10;;;3.30;99.90;;;;;;5064531;28;20083;-82
2020/12/05 04:43:06;;;;;;;0.10;0.10;;;3.40;99.90;;;;;;5063692;28;20024;-82
2020/12/05 04:45:33;;;;;;;0.10;0.10;;;3.40;99.90;;;;;;5052364;28;20035;-81
2020/12/05 04:48:01;;;;;;;0.10;0.10;;;3.40;99.90;;;;;;5056720;28;20032;-80
2020/12/05 04:50:29;;;;;;;0.10;0.10;;;3.40;99.90;;;;;;5060203;28;20444;-80
2020/12/05 04:53:06;;;;;;;0.10;0.10;;;3.40;99.90;;;;;;5048333;28;20189;-81
2020/12/05 04:55:39;;;;;;;0.55;0.55;;;3.50;99.90;;;;;;5051021;28;20054;-81
2020/12/05 04:58:08;;;;;;;0.10;0.10;;;3.50;99.90;;;;;;5066119;28;20472;-81
2020/12/05 05:00:34;;;;;;;0.10;0.10;;;3.40;99.90;;;;;;5064748;28;20493;-82
2020/12/05 05:03:09;;;;;;;0.10;0.10;;;3.50;99.90;;;;;;5066623;28;20119;-81
2020/12/05 05:05:34;;;;;;;0.10;0.10;;;3.50;99.90;;;;;;5061437;28;20021;-81
2020/12/05 05:08:00;;;;;;;0.10;0.10;;;3.50;99.90;;;;;;5065987;28;20439;-81
2020/12/05 05:10:32;;;;;;;0.30;0.30;;;3.50;99.90;;;;;;5067782;28;20021;-81
2020/12/05 05:13:19;;;;;;;1.17;1.08;;;3.40;99.90;;;;;;5059638;28;20090;-81
2020/12/05 05:15:45;;;;;;;0.10;0.10;;;3.50;99.90;;;;;;5058399;28;20532;-81
2020/12/05 05:18:12;;;;;;;0.10;0.10;;;3.50;99.90;;;;;;5057635;28;20020;-81
2020/12/05 05:20:40;;;;;;;;;;;3.50;99.90;;;;;;5064716;28;20279;-81
2020/12/05 05:23:17;;;;;;;0.10;0.10;;;3.60;99.90;;;;;;5062144;28;19917;-80
2020/12/05 05:25:49;;;;;;;0.10;0.10;;;3.50;99.90;;;;;;5068829;28;20054;-81
2020/12/05 05:28:23;;;;;;;0.10;0.10;;;3.50;99.90;;;;;;5067477;28;20031;-81
2020/12/05 05:33:38;;;;;;;3.28;0.95;;;3.50;99.90;;;;;;5066774;28;20025;-81
2020/12/05 05:36:34;;;;;;;0.65;0.57;;;3.50;99.90;;;;;;5068200;28;20033;-82
2020/12/05 05:39:03;;;;;;;0.10;0.10;;;3.50;99.90;;;;;;5063555;28;20052;-82
2020/12/05 05:41:29;;;;;;;0.20;0.20;;;3.50;99.90;;;;;;5063201;28;20112;-81
2020/12/05 05:43:56;;;;;;;0.10;0.10;;;3.40;99.90;;;;;;5070908;28;20440;-82
2020/12/05 05:46:26;;;;;;;0.32;0.28;;;3.30;99.90;;;;;;5070913;28;20028;-81
2020/12/05 05:48:53;;;;;;;0.10;0.10;;;3.40;99.90;;;;;;5070127;28;20027;-81
2020/12/05 05:51:36;;;;;;;0.10;0.10;;;3.40;99.90;;;;;;5069265;28;20517;-81
2020/12/05 05:54:26;;;;;;;0.10;0.10;;;3.50;99.90;;;;;;5062239;28;20397;-81
2020/12/05 05:57:15;;;;;;;0.10;0.10;;;3.50;99.90;;;;;;5055501;28;20033;-81
2020/12/05 05:59:45;;;;;;;0.20;0.20;;;3.40;99.90;;;;;;5065234;28;20024;-81
2020/12/05 06:02:13;;;;;;;0.10;0.10;;;3.50;99.90;;;;;;5059317;28;20025;-81
2020/12/05 06:04:40;;;;;;;0.10;0.10;;;3.50;99.90;;;;;;5059794;28;20024;-81
2020/12/05 06:07:08;;;;;;;0.17;0.17;;;3.50;99.90;;;;;;5057719;28;20021;-81
2020/12/05 06:09:49;;;;;;;0.10;0.10;;;3.60;99.90;;;;;;5059717;28;20090;-81
2020/12/05 06:12:25;;;;;;;0.10;0.10;;;3.60;99.90;;;;;;5059470;28;20068;-81
2020/12/05 06:14:51;;;;;;;0.13;0.13;;;3.60;99.90;;;;;;5049969;28;20024;-81
2020/12/05 06:17:22;;;;;;;0.10;0.10;;;3.60;99.90;;;;;;5056411;28;20028;-81
2020/12/05 06:19:53;;;;;;;0.15;0.15;;;3.50;99.90;;;;;;5055481;28;20029;-81
2020/12/05 06:22:28;;;;;;;0.17;0.17;;;3.60;99.90;;;;;;5068473;28;20085;-81
2020/12/05 06:25:00;;;;;;;0.10;0.10;;;3.60;99.90;;;;;;5068642;28;20031;-81
2020/12/05 06:27:27;;;;;;;0.20;0.20;;;3.60;99.90;;;;;;5064461;28;20028;-81
2020/12/05 06:29:53;;;;;;;0.10;0.10;;;3.60;99.90;;;;;;5054249;28;20389;-81
2020/12/05 06:32:38;;;;;;;0.10;0.10;;;3.50;99.90;;;;;;5058130;28;20245;-81
2020/12/05 06:35:05;;;;;;;0.10;0.10;;;3.40;99.90;;;;;;5068086;28;20099;-81
2020/12/05 06:37:33;;;;;;;0.10;0.10;;;3.50;99.90;;;;;;5066617;28;20017;-81
2020/12/05 06:40:01;;;;;;;0.55;0.55;;;3.50;99.90;;;;;;5056430;28;20037;-81
2020/12/05 06:42:26;;;;;;;0.10;0.10;;;3.50;99.90;;;;;;5048641;28;20134;-81
2020/12/05 06:44:52;;;;;;;0.10;0.10;;;3.50;99.90;;;;;;5057026;28;20477;-81
2020/12/05 06:47:25;;;;;;;0.10;0.10;;;3.50;99.90;;;;;;5064593;28;20021;-82
2020/12/05 06:49:52;;;;;;;0.10;0.10;;;3.50;99.90;;;;;;5051088;28;20024;-81
2020/12/05 06:52:26;;;;;;;0.10;0.10;;;3.60;99.90;;;;;;5067326;28;20103;-81
2020/12/05 06:55:05;;;;;;;0.20;0.20;;;3.50;99.90;;;;;;5068181;28;20064;-82
2020/12/05 06:57:32;;;;;;;0.05;0.05;;;3.50;99.90;;;;;;5058226;28;20021;-82
2020/12/05 07:00:22;;;;;;;0.40;0.40;;;3.40;99.90;;;;;;5059770;28;20035;-80
2020/12/05 07:02:50;;;;;;;0.10;0.10;;;3.40;99.90;;;;;;5065665;28;20486;-82
2020/12/05 07:05:21;;;;;;;0.10;0.10;;;3.30;99.90;;;;;;5060791;28;20059;-81
2020/12/05 07:07:50;;;;;;;0.10;0.10;;;3.30;99.90;;;;;;5065575;28;20060;-81
2020/12/05 07:10:17;;;;;;;0.10;0.10;;;3.40;99.90;;;;;;5063054;28;20146;-82
2020/12/05 07:12:43;;;;;;;0.10;0.10;;;3.40;99.90;;;;;;5069129;28;20028;-84
2020/12/05 07:15:28;;;;;;;0.10;0.10;;;3.20;99.90;;;;;;5068059;28;20514;-85
2020/12/05 07:17:58;;;;;;;0.10;0.10;;;3.10;99.90;;;;;;5057966;28;20037;-85
2020/12/05 07:20:26;;;;;;;0.10;0.10;;;3.30;99.90;;;;;;5055787;28;20040;-86
2020/12/05 07:22:53;;;;;;;0.10;0.10;;;3.80;99.90;;;;;;5057616;28;20049;-86
2020/12/05 07:25:20;;;;;;;0.10;0.10;;;4.10;99.90;;;;;;5053645;28;20032;-83
2020/12/05 07:27:47;;;;;;;0.10;0.10;;;3.90;99.90;;;;;;5054129;28;20788;-84
2020/12/05 07:30:14;;;;;;;0.10;0.10;;;3.90;99.90;;;;;;5052228;28;20040;-84
2020/12/05 07:32:42;;;;;;;0.10;0.10;;;3.60;99.90;;;;;;5056712;28;20341;-83
2020/12/05 07:35:13;;;;;;;0.10;0.10;;;3.70;99.90;;;;;;5050714;28;20488;-83
2020/12/05 07:37:40;;;;;;;0.10;0.10;;;4.20;99.90;;;;;;5055018;28;20141;-84
2020/12/05 07:40:07;;;;;;;0.13;0.13;;;4.00;99.90;;;;;;5056222;28;20024;-83
2020/12/05 07:42:39;;;;;;;0.03;0.03;;;4.00;99.90;;;;;;5052396;28;20039;-83
2020/12/05 07:45:05;;;;;;;0.10;0.10;;;4.20;98.00;;;;;;5059315;28;20102;-86
2020/12/05 07:47:33;;;;;;;0.10;0.10;;;3.90;98.20;;;;;;5052353;28;20041;-84
2020/12/05 07:50:02;;;;;;;0.10;0.10;;;4.10;92.80;;;;;;5054033;28;20029;-82
2020/12/05 07:52:28;;;;;;;0.20;0.20;;;5.00;91.40;;;;;;5059571;28;20039;-86
2020/12/05 07:54:59;;;;;;;0.25;0.25;;;4.70;77.50;;;;;;5058943;28;20051;-85
2020/12/05 07:57:31;;;;;;;0.70;0.70;;;4.40;80.70;;;;;;5053984;28;20036;-85
2020/12/05 08:00:09;;;;;;;0.45;0.45;;;5.00;68.30;;;;;;5054961;28;20036;-85
2020/12/05 08:02:35;;;;;;;0.10;0.10;;;5.20;68.30;;;;;;5054249;28;20041;-86
2020/12/05 08:05:21;;;;;;;0.10;0.10;;;5.30;52.50;;;;;;5055401;28;20036;-86
2020/12/05 08:07:55;;;;;;;0.10;0.10;;;5.00;45.00;;;;;;5049748;28;20028;-86
2020/12/05 08:10:23;;;;;;;0.10;0.10;;;4.40;51.20;;;;;;5053296;28;20029;-86
2020/12/05 08:13:26;;;;;;;0.10;0.10;;;4.60;51.90;;;;;;5053331;28;20086;-86
2020/12/05 08:16:08;;;;;;;0.10;0.10;;;5.10;50.90;;;;;;5052806;28;20550;-85
2020/12/05 08:18:35;;;;;;;0.10;0.10;;;4.70;34.10;;;;;;5052474;28;20063;-85
2020/12/05 08:21:05;;;;;;;0.10;0.10;;;4.60;40.10;;;;;;5055401;28;20025;-83
2020/12/05 08:23:38;;;;;;;0.10;0.10;;;4.70;46.00;;;;;;5052083;28;20032;-83
2020/12/05 08:26:14;;;;;;;0.20;0.20;;;4.60;38.60;;;;;;5053953;28;20096;-84
2020/12/05 08:28:42;;;;;;;0.10;0.10;;;4.20;47.20;;;;;;5052772;28;20094;-84
2020/12/05 08:31:10;;;;;;;0.00;0.00;;;4.70;64.00;;;;;;5050730;28;20032;-83
2020/12/05 08:33:48;;;;;;;0.10;0.10;;;4.30;44.60;;;;;;5052098;28;20024;-83
2020/12/05 08:36:26;;;;;;;0.70;0.55;;;4.60;43.20;;;;;;5049332;28;20021;-83
2020/12/05 08:38:55;;;;;;;0.10;0.10;;;4.50;40.10;;;;;;5053737;28;20021;-83
2020/12/05 08:41:21;;;;;;;0.98;0.75;;;4.50;49.90;;;;;;5051079;28;20021;-83
2020/12/05 08:43:48;;;;;;;0.30;0.30;;;4.50;54.20;;;;;;5047889;28;20028;-83
2020/12/05 08:46:20;;;;;;;0.10;0.10;;;4.50;48.10;;;;;;5051684;28;20029;-83
2020/12/05 08:48:48;;;;;;;0.20;0.20;;;4.50;47.00;;;;;;5049849;28;20435;-84
2020/12/05 08:51:14;;;;;;;0.10;0.10;;;4.50;45.00;;;;;;5055618;28;20016;-83
2020/12/05 08:53:41;;;;;;;0.10;0.10;;;4.50;38.80;;;;;;5055207;28;20028;-83
2020/12/05 08:56:08;;;;;;;0.10;0.10;;;4.30;41.20;;;;;;5054919;28;20025;-83
2020/12/05 08:58:46;;;;;;;0.10;0.10;;;4.40;43.70;;;;;;5059020;28;20780;-83
2020/12/05 09:01:14;;;;;;;0.10;0.10;;;4.30;41.90;;;;;;5055620;28;20025;-83
2020/12/05 09:03:41;;;;;;;0.40;0.40;;;4.40;41.00;;;;;;5058782;28;20056;-84
2020/12/05 09:06:07;;;;;;;0.10;0.10;;;4.20;41.90;;;;;;5058373;28;20056;-84
2020/12/05 09:08:34;;;;;;;0.10;0.10;;;4.30;39.30;;;;;;5061066;28;20032;-85
2020/12/05 09:11:00;;;;;;;0.10;0.10;;;4.40;37.20;;;;;;5057934;28;20025;-85
2020/12/05 09:13:27;;;;;;;0.10;0.10;;;4.60;35.30;;;;;;5052266;28;20025;-85
2020/12/05 09:16:00;;;;;;;0.75;0.75;;;4.70;32.90;;;;;;5058022;28;20417;-85
2020/12/05 09:18:27;;;;;;;0.10;0.10;;;4.80;28.40;;;;;;5051143;28;20370;-85
2020/12/05 09:20:53;;;;;;;0.10;0.10;;;4.90;29.90;;;;;;5064228;28;20025;-85
2020/12/05 09:23:29;;;;;;;0.10;0.10;;;5.00;19.60;;;;;;5053737;28;20025;-85
2020/12/05 09:26:04;;;;;;;0.10;0.10;;;4.90;13.70;;;;;;5063807;28;20029;-85
2020/12/05 09:28:31;;;;;;;0.10;0.10;;;4.80;15.00;;;;;;5055518;28;20028;-84
2020/12/05 09:30:57;;;;;;;0.25;0.25;;;4.60;20.80;;;;;;5055548;28;20017;-84
2020/12/05 09:33:23;;;;;;;0.10;0.10;;;4.70;22.80;;;;;;5059167;28;20532;-85
2020/12/05 09:35:50;;;;;;;0.10;0.10;;;4.60;23.30;;;;;;5059208;28;20033;-85
2020/12/05 09:38:17;;;;;;;0.43;0.43;;;4.70;20.00;;;;;;5055705;28;20075;-84
2020/12/05 09:40:44;;;;;;;0.10;0.10;;;4.90;14.40;;;;;;5056019;28;20732;-84
2020/12/05 09:43:12;;;;;;;0.10;0.10;;;4.80;20.10;;;;;;5055214;28;20017;-84
2020/12/05 09:45:39;;;;;;;0.10;0.10;;;4.80;17.50;;;;;;5055739;28;20029;-84
2020/12/05 09:48:05;;;;;;;0.03;0.03;;;5.00;13.50;;;;;;5058342;28;20051;-84
2020/12/05 09:50:31;;;;;;;0.10;0.10;;;4.90;10.70;;;;;;5055158;28;20025;-84
2020/12/05 09:52:57;;;;;;;0.10;0.10;;;4.70;10.50;;;;;;5063503;28;20024;-84
2020/12/05 09:55:23;;;;;;;0.10;0.10;;;4.80;13.70;;;;;;5058886;28;20036;-84
2020/12/05 09:57:49;;;;;;;0.10;0.10;;;4.60;10.80;;;;;;5060181;28;20071;-84
2020/12/05 10:00:15;;;;;;;0.10;0.10;;;4.50;10.40;;;;;;5054068;28;20461;-84
2020/12/05 10:02:41;;;;;;;0.55;0.55;;;4.50;16.10;;;;;;5051324;28;20036;-84
2020/12/05 10:05:09;;;;;;;0.10;0.10;;;4.50;19.10;;;;;;5056958;28;20025;-84
2020/12/05 10:07:35;;;;;;;0.50;0.50;;;4.50;24.40;;;;;;5060805;28;20032;-85
2020/12/05 10:10:02;;;;;;;0.10;0.10;;;4.70;22.60;;;;;;5053930;28;20023;-84
2020/12/05 10:12:28;;;;;;;0.10;0.10;;;4.70;19.20;;;;;;5063835;28;20790;-84
2020/12/05 10:14:54;;;;;;;0.10;0.10;;;4.60;12.90;;;;;;5060123;28;20037;-84
2020/12/05 10:17:25;;;;;;;0.10;0.10;;;4.60;13.00;;;;;;5052309;28;20108;-84
2020/12/05 10:19:52;;;;;;;0.10;0.10;;;4.50;15.30;;;;;;5052041;28;20082;-85
2020/12/05 10:22:18;;;;;;;0.10;0.10;;;4.70;10.30;;;;;;5057303;28;21020;-84
2020/12/05 10:24:44;;;;;;;0.10;0.10;;;4.40;1.00;;;;;;5051784;28;20033;-85
2020/12/05 10:27:10;;;;;;;0.10;0.10;;;4.80;1.00;;;;;;5055199;28;20509;-85
2020/12/05 10:29:36;;;;;;;0.10;0.10;;;5.10;1.00;;;;;;5054912;28;20405;-85
2020/12/05 10:32:02;;;;;;;0.10;0.10;;;5.10;1.00;;;;;;5065613;28;20429;-82
2020/12/05 10:34:27;;;;;;;0.10;0.10;;;4.90;1.00;;;;;;5056184;28;20025;-82
2020/12/05 10:36:54;;;;;;;0.10;0.10;;;4.80;1.00;;;;;;5060943;28;20024;-81
2020/12/05 10:39:20;;;;;;;0.20;0.20;;;4.80;1.00;;;;;;5065934;28;20029;-82
2020/12/05 10:41:49;;;;;;;0.20;0.20;;;4.90;1.00;;;;;;5065783;28;20032;-82
2020/12/05 10:44:15;;;;;;;0.90;0.35;;;4.90;1.00;;;;;;5068722;28;20052;-82
2020/12/05 10:46:48;;;;;;;0.10;0.10;;;5.00;1.00;;;;;;5059793;28;20394;-82
2020/12/05 10:49:14;;;;;;;0.10;0.10;;;5.00;1.00;;;;;;5067219;28;20040;-83
2020/12/05 10:51:40;;;;;;;0.10;0.10;;;5.10;1.00;;;;;;5061020;28;20104;-82
2020/12/05 10:54:13;;;;;;;0.10;0.10;;;5.00;1.00;;;;;;5057224;28;20036;-82
2020/12/05 10:56:40;;;;;;;0.10;0.10;;;5.10;1.00;;;;;;5050185;28;20128;-82
2020/12/05 10:59:08;;;;;;;0.10;0.10;;;5.10;1.00;;;;;;5058889;28;20025;-88
2020/12/05 11:01:34;;;;;;;0.10;0.10;;;5.20;1.00;;;;;;5056492;28;20031;-89
2020/12/05 11:04:01;;;;;;;0.10;0.10;;;5.20;1.00;;;;;;5054782;28;20077;-88
2020/12/05 11:06:27;;;;;;;0.10;0.10;;;5.20;1.00;;;;;;5055906;28;20401;-87
2020/12/05 11:08:54;;;;;;;0.40;0.40;;;5.20;1.00;;;;;;5055737;28;20035;-84
2020/12/05 11:11:20;;;;;;;0.20;0.20;;;5.40;1.00;;;;;;5056230;28;20883;-82
2020/12/05 11:13:47;;;;;;;0.10;0.10;;;5.50;1.00;;;;;;5064283;28;20029;-82
2020/12/05 11:16:23;;;;;;;0.33;0.33;;;5.30;1.00;;;;;;5064141;28;20601;-85
2020/12/05 11:18:50;;;;;;;0.10;0.10;;;5.50;1.00;;;;;;5051516;28;20345;-84
2020/12/05 11:21:16;;;;;;;;;;;5.40;1.00;;;;;;5059419;28;20032;-86
2020/12/05 11:23:42;;;;;;;0.10;0.10;;;5.70;1.00;;;;;;5061318;28;19912;-85
2020/12/05 11:26:08;;;;;;;0.10;0.10;;;5.80;1.00;;;;;;5057143;28;20047;-85
2020/12/05 11:28:34;;;;;;;0.10;0.10;;;5.60;99.90;;;;;;5056698;28;20502;-85
2020/12/05 11:31:00;;;;;;;0.10;0.10;;;5.30;99.90;;;;;;5067760;28;20271;-87
2020/12/05 11:33:25;;;;;;;0.10;0.10;;;4.90;99.90;;;;;;5069053;28;20016;-85
2020/12/05 11:35:51;;;;;;;0.20;0.20;;;4.80;99.90;;;;;;5065657;28;20036;-86
2020/12/05 11:38:18;;;;;;;0.10;0.10;;;5.20;1.00;;;;;;5057416;28;20028;-85
2020/12/05 11:40:46;;;;;;;;;;;5.40;1.00;;;;;;5061511;28;20040;-85
2020/12/05 11:43:11;;;;;;;0.25;0.25;;;5.50;99.90;;;;;;5055897;28;19975;-84
2020/12/05 11:45:37;;;;;;;0.10;0.10;;;5.30;99.90;;;;;;5055384;28;20021;-85
2020/12/05 11:48:04;;;;;;;0.10;0.10;;;5.60;99.90;;;;;;5049644;28;20830;-84
2020/12/05 11:50:31;;;;;;;0.10;0.10;;;5.80;99.90;;;;;;5052111;28;20052;-83
2020/12/05 11:52:59;;;;;;;0.10;0.10;;;6.10;99.90;;;;;;5047942;28;20041;-84
2020/12/05 11:55:25;;;;;;;0.05;0.05;;;6.30;99.90;;;;;;5051988;28;20113;-83
2020/12/05 11:57:51;;;;;;;0.47;0.47;;;6.10;99.90;;;;;;5050030;28;20112;-85
2020/12/05 12:00:17;;;;;;;0.30;0.30;;;5.80;99.90;;;;;;5050243;28;20551;-85
2020/12/05 12:02:43;;;;;;;0.10;0.10;;;5.80;99.90;;;;;;5052730;28;20032;-84
2020/12/05 12:05:10;;;;;;;0.20;0.20;;;5.60;99.90;;;;;;5060279;28;20035;-85
2020/12/05 12:07:36;;;;;;;;;;;5.60;99.90;;;;;;5053489;28;20025;-83
2020/12/05 12:10:03;;;;;;;0.10;0.10;;;5.50;99.90;;;;;;5051423;28;19920;-84
2020/12/05 12:12:29;;;;;;;0.10;0.10;;;5.90;99.90;;;;;;5057310;28;20032;-83
2020/12/05 12:14:55;;;;;;;0.10;0.10;;;5.50;99.90;;;;;;5055587;28;20450;-83
2020/12/05 12:17:21;;;;;;;0.30;0.30;;;5.70;99.90;;;;;;5049521;28;20029;-83
2020/12/05 12:19:47;;;;;;;0.07;0.07;;;5.50;99.90;;;;;;5054674;28;20021;-84
2020/12/05 12:22:15;;;;;;;0.10;0.10;;;5.40;99.90;;;;;;5049050;28;20044;-83
2020/12/05 12:24:42;;;;;;;0.10;0.10;;;5.40;99.90;;;;;;5042711;28;20032;-84
2020/12/05 12:27:09;;;;;;;0.10;0.10;;;5.30;99.90;;;;;;5057008;28;20026;-83
2020/12/05 12:29:35;;;;;;;0.20;0.20;;;5.00;99.90;;;;;;5057364;28;20778;-84
2020/12/05 12:32:02;;;;;;;0.17;0.17;;;5.00;99.90;;;;;;5052767;28;20059;-83
2020/12/05 12:34:28;;;;;;;0.13;0.13;;;5.00;99.90;;;;;;5050496;28;20024;-83
2020/12/05 12:36:54;;;;;;;0.10;0.10;;;5.30;99.90;;;;;;5054480;28;20883;-83
2020/12/05 12:39:19;;;;;;;0.20;0.20;;;5.40;99.90;;;;;;5056454;28;20024;-83
2020/12/05 12:41:46;;;;;;;0.00;0.00;;;5.40;99.90;;;;;;5058823;28;20111;-83
2020/12/05 12:44:13;;;;;;;0.10;0.10;;;5.40;99.90;;;;;;5056741;28;20021;-83
2020/12/05 12:46:55;;;;;;;0.55;0.55;;;5.50;99.90;;;;;;5054502;28;20665;-83
2020/12/05 12:49:21;;;;;;;0.10;0.10;;;5.20;99.90;;;;;;5056331;28;20013;-83
2020/12/05 12:51:47;;;;;;;0.10;0.10;;;5.40;99.90;;;;;;5056991;28;20505;-83
2020/12/05 12:54:13;;;;;;;0.10;0.10;;;5.50;99.90;;;;;;5059717;28;20028;-83
2020/12/05 12:56:40;;;;;;;0.10;0.10;;;5.00;99.90;;;;;;5056693;28;20113;-83
2020/12/05 12:59:06;;;;;;;0.10;0.10;;;5.20;99.90;;;;;;5052994;28;20097;-83
2020/12/05 13:01:32;;;;;;;0.10;0.10;;;5.20;99.90;;;;;;5053812;28;20112;-83
2020/12/05 13:03:57;;;;;;;0.10;0.10;;;5.40;99.90;;;;;;5057192;28;20029;-83
2020/12/05 13:06:23;;;;;;;0.20;0.20;;;5.10;99.90;;;;;;5055805;28;20115;-83
2020/12/05 13:08:49;;;;;;;0.10;0.10;;;5.20;99.90;;;;;;5052218;28;20042;-83